sensor_id;sensor_type;location;lat;lon;timestamp;pressure;altitude;pressure_sealevel;temperature;humidity
6032;BME280;3044;43.232;27.972;2022-12-18T00:01:14;45182.38;;;-143.84;71.51
6032;BME280;3044;43.232;27.972;2022-12-18T00:03:42;45169.03;;;-143.84;71.76
6032;BME280;3044;43.232;27.972;2022-12-18T00:06:09;45163.31;;;-143.84;71.90
6032;BME280;3044;43.232;27.972;2022-12-18T00:08:37;45161.41;;;-143.84;72.11
6032;BME280;3044;43.232;27.972;2022-12-18T00:11:05;45169.03;;;-143.84;72.73
6032;BME280;3044;43.232;27.972;2022-12-18T00:13:33;45150.00;;;-143.84;72.62
6032;BME280;3044;43.232;27.972;2022-12-18T00:16:03;45169.03;;;-143.84;72.46
6032;BME280;3044;43.232;27.972;2022-12-18T00:18:30;45201.41;;;-143.84;73.10
6032;BME280;3044;43.232;27.972;2022-12-18T00:20:58;45186.16;;;-143.84;73.30
6032;BME280;3044;43.232;27.972;2022-12-18T00:23:26;45195.69;;;-143.84;73.11
6032;BME280;3044;43.232;27.972;2022-12-18T00:25:53;45180.47;;;-143.84;72.90
6032;BME280;3044;43.232;27.972;2022-12-18T00:28:21;45174.75;;;-143.84;72.96
6032;BME280;3044;43.232;27.972;2022-12-18T00:30:48;45186.16;;;-143.84;73.08
6032;BME280;3044;43.232;27.972;2022-12-18T00:33:18;45203.31;;;-143.84;73.28
6032;BME280;3044;43.232;27.972;2022-12-18T00:35:45;45189.97;;;-143.84;72.76
6032;BME280;3044;43.232;27.972;2022-12-18T00:38:12;45197.59;;;-143.84;72.34
6032;BME280;3044;43.232;27.972;2022-12-18T00:40:39;45170.94;;;-143.84;72.60
6032;BME280;3044;43.232;27.972;2022-12-18T00:43:06;45165.22;;;-143.84;72.75
6032;BME280;3044;43.232;27.972;2022-12-18T00:45:32;45146.19;;;-143.84;72.95
6032;BME280;3044;43.232;27.972;2022-12-18T00:48:00;45193.78;;;-143.84;73.07
6032;BME280;3044;43.232;27.972;2022-12-18T00:50:28;45150.00;;;-143.84;72.83
6032;BME280;3044;43.232;27.972;2022-12-18T00:52:55;45167.13;;;-143.84;71.97
6032;BME280;3044;43.232;27.972;2022-12-18T00:55:22;45186.16;;;-143.84;72.17
6032;BME280;3044;43.232;27.972;2022-12-18T00:57:51;45157.59;;;-143.84;72.22
6032;BME280;3044;43.232;27.972;2022-12-18T01:00:18;45155.69;;;-143.84;71.56
6032;BME280;3044;43.232;27.972;2022-12-18T01:02:46;45144.28;;;-143.84;72.08
6032;BME280;3044;43.232;27.972;2022-12-18T01:05:13;45205.22;;;-143.84;72.22
6032;BME280;3044;43.232;27.972;2022-12-18T01:07:42;45169.03;;;-143.84;72.19
6032;BME280;3044;43.232;27.972;2022-12-18T01:10:12;45167.13;;;-143.84;72.34
6032;BME280;3044;43.232;27.972;2022-12-18T01:12:40;45180.47;;;-143.84;72.32
6032;BME280;3044;43.232;27.972;2022-12-18T01:15:09;45169.03;;;-143.84;72.11
6032;BME280;3044;43.232;27.972;2022-12-18T01:17:36;45150.00;;;-143.84;71.85
6032;BME280;3044;43.232;27.972;2022-12-18T01:20:04;45184.25;;;-143.84;72.22
6032;BME280;3044;43.232;27.972;2022-12-18T01:22:32;45174.75;;;-143.84;71.89
6032;BME280;3044;43.232;27.972;2022-12-18T01:25:00;45172.84;;;-143.84;72.37
6032;BME280;3044;43.232;27.972;2022-12-18T01:27:27;45199.50;;;-143.84;72.15
6032;BME280;3044;43.232;27.972;2022-12-18T01:29:55;45222.34;;;-143.84;71.94
6032;BME280;3044;43.232;27.972;2022-12-18T01:32:22;45167.13;;;-143.84;72.24
6032;BME280;3044;43.232;27.972;2022-12-18T01:34:49;45174.75;;;-143.84;72.62
6032;BME280;3044;43.232;27.972;2022-12-18T01:37:16;45146.19;;;-143.84;72.53
6032;BME280;3044;43.232;27.972;2022-12-18T01:39:43;45172.84;;;-143.84;72.70
6032;BME280;3044;43.232;27.972;2022-12-18T01:42:14;45178.56;;;-143.84;72.96
6032;BME280;3044;43.232;27.972;2022-12-18T01:45:04;45188.06;;;-143.84;72.86
6032;BME280;3044;43.232;27.972;2022-12-18T01:47:35;45144.28;;;-143.84;72.95
6032;BME280;3044;43.232;27.972;2022-12-18T01:50:07;45191.88;;;-143.84;72.79
6032;BME280;3044;43.232;27.972;2022-12-18T01:52:35;45169.03;;;-143.84;72.79
6032;BME280;3044;43.232;27.972;2022-12-18T01:55:05;45189.97;;;-143.84;73.08
6032;BME280;3044;43.232;27.972;2022-12-18T01:57:34;45176.66;;;-143.84;72.87
6032;BME280;3044;43.232;27.972;2022-12-18T02:00:05;45148.09;;;-143.84;73.02
6032;BME280;3044;43.232;27.972;2022-12-18T02:02:33;45186.16;;;-143.84;72.80
6032;BME280;3044;43.232;27.972;2022-12-18T02:05:00;45161.41;;;-143.84;72.73
6032;BME280;3044;43.232;27.972;2022-12-18T02:07:37;45195.69;;;-143.84;72.74
6032;BME280;3044;43.232;27.972;2022-12-18T02:10:14;45184.25;;;-143.84;72.65
6032;BME280;3044;43.232;27.972;2022-12-18T02:12:49;45193.78;;;-143.84;72.26
6032;BME280;3044;43.232;27.972;2022-12-18T02:15:26;45189.97;;;-143.84;71.82
6032;BME280;3044;43.232;27.972;2022-12-18T02:17:58;45163.31;;;-143.84;71.83
6032;BME280;3044;43.232;27.972;2022-12-18T02:20:35;45210.94;;;-143.84;71.52
6032;BME280;3044;43.232;27.972;2022-12-18T02:23:15;45186.16;;;-143.84;71.64
6032;BME280;3044;43.232;27.972;2022-12-18T02:26:14;45174.75;;;-143.84;71.96
6032;BME280;3044;43.232;27.972;2022-12-18T02:28:46;45169.03;;;-143.84;71.75
6032;BME280;3044;43.232;27.972;2022-12-18T02:31:19;45195.69;;;-143.84;71.76
6032;BME280;3044;43.232;27.972;2022-12-18T02:33:49;45169.03;;;-143.84;71.75
6032;BME280;3044;43.232;27.972;2022-12-18T02:36:18;45188.06;;;-143.84;71.48
6032;BME280;3044;43.232;27.972;2022-12-18T02:38:47;45193.78;;;-143.84;71.18
6032;BME280;3044;43.232;27.972;2022-12-18T02:41:17;45170.94;;;-143.84;70.66
6032;BME280;3044;43.232;27.972;2022-12-18T02:43:52;45193.78;;;-143.84;70.77
6032;BME280;3044;43.232;27.972;2022-12-18T02:46:30;45169.03;;;-143.84;70.60
6032;BME280;3044;43.232;27.972;2022-12-18T02:49:03;45174.75;;;-143.84;70.45
6032;BME280;3044;43.232;27.972;2022-12-18T02:51:39;45201.41;;;-143.84;70.27
6032;BME280;3044;43.232;27.972;2022-12-18T02:54:13;45155.69;;;-143.84;70.29
6032;BME280;3044;43.232;27.972;2022-12-18T02:56:50;45176.66;;;-143.84;70.18
6032;BME280;3044;43.232;27.972;2022-12-18T02:59:23;45188.06;;;-143.84;70.07
6032;BME280;3044;43.232;27.972;2022-12-18T03:01:56;45189.97;;;-143.84;70.25
6032;BME280;3044;43.232;27.972;2022-12-18T03:04:26;45163.31;;;-143.84;70.12
6032;BME280;3044;43.232;27.972;2022-12-18T03:06:57;45205.22;;;-143.84;70.82
6032;BME280;3044;43.232;27.972;2022-12-18T03:09:29;45188.06;;;-143.84;71.11
6032;BME280;3044;43.232;27.972;2022-12-18T03:12:03;45186.16;;;-143.84;71.80
6032;BME280;3044;43.232;27.972;2022-12-18T03:14:56;45174.75;;;-143.84;71.45
6032;BME280;3044;43.232;27.972;2022-12-18T03:17:27;45151.91;;;-143.84;71.71
6032;BME280;3044;43.232;27.972;2022-12-18T03:19:59;45178.56;;;-143.84;72.19
6032;BME280;3044;43.232;27.972;2022-12-18T03:22:30;45174.75;;;-143.84;71.74
6032;BME280;3044;43.232;27.972;2022-12-18T03:25:00;45201.41;;;-143.84;71.78
6032;BME280;3044;43.232;27.972;2022-12-18T03:27:31;45201.41;;;-143.84;71.51
6032;BME280;3044;43.232;27.972;2022-12-18T03:30:02;45207.13;;;-143.84;71.06
6032;BME280;3044;43.232;27.972;2022-12-18T03:32:39;45195.69;;;-143.84;71.11
6032;BME280;3044;43.232;27.972;2022-12-18T03:35:08;45201.41;;;-143.84;71.10
6032;BME280;3044;43.232;27.972;2022-12-18T03:37:38;45189.97;;;-143.84;70.89
6032;BME280;3044;43.232;27.972;2022-12-18T03:40:06;45218.53;;;-143.84;71.04
6032;BME280;3044;43.232;27.972;2022-12-18T03:42:41;45186.16;;;-143.84;70.86
6032;BME280;3044;43.232;27.972;2022-12-18T03:45:13;45197.59;;;-143.84;70.89
6032;BME280;3044;43.232;27.972;2022-12-18T03:47:54;45191.88;;;-143.84;71.53
6032;BME280;3044;43.232;27.972;2022-12-18T03:50:29;45193.78;;;-143.84;71.28
6032;BME280;3044;43.232;27.972;2022-12-18T03:53:05;45167.13;;;-143.84;71.52
6032;BME280;3044;43.232;27.972;2022-12-18T03:55:36;45188.06;;;-143.84;71.14
6032;BME280;3044;43.232;27.972;2022-12-18T03:58:06;45186.16;;;-143.84;71.62
6032;BME280;3044;43.232;27.972;2022-12-18T04:00:34;45191.88;;;-143.84;70.68
6032;BME280;3044;43.232;27.972;2022-12-18T04:03:03;45159.50;;;-143.84;70.65
6032;BME280;3044;43.232;27.972;2022-12-18T04:05:33;45201.41;;;-143.84;70.44
6032;BME280;3044;43.232;27.972;2022-12-18T04:08:01;45197.59;;;-143.84;70.75
6032;BME280;3044;43.232;27.972;2022-12-18T04:10:29;45174.75;;;-143.84;70.00
6032;BME280;3044;43.232;27.972;2022-12-18T04:12:57;45212.84;;;-143.84;70.29
6032;BME280;3044;43.232;27.972;2022-12-18T04:15:26;45188.06;;;-143.84;70.27
6032;BME280;3044;43.232;27.972;2022-12-18T04:17:53;45195.69;;;-143.84;70.23
6032;BME280;3044;43.232;27.972;2022-12-18T04:20:20;45193.78;;;-143.84;69.66
6032;BME280;3044;43.232;27.972;2022-12-18T04:22:47;45216.63;;;-143.84;69.37
6032;BME280;3044;43.232;27.972;2022-12-18T04:25:14;45214.72;;;-143.84;68.86
6032;BME280;3044;43.232;27.972;2022-12-18T04:27:42;45205.22;;;-143.84;68.66
6032;BME280;3044;43.232;27.972;2022-12-18T04:30:09;45189.97;;;-143.84;69.09
6032;BME280;3044;43.232;27.972;2022-12-18T04:32:38;45172.84;;;-143.84;69.04
6032;BME280;3044;43.232;27.972;2022-12-18T04:35:05;45207.13;;;-143.84;68.56
6032;BME280;3044;43.232;27.972;2022-12-18T04:37:36;45186.16;;;-143.84;69.08
6032;BME280;3044;43.232;27.972;2022-12-18T04:40:03;45184.25;;;-143.84;69.35
6032;BME280;3044;43.232;27.972;2022-12-18T04:42:31;45214.72;;;-143.84;69.22
6032;BME280;3044;43.232;27.972;2022-12-18T04:44:58;45212.84;;;-143.84;68.91
6032;BME280;3044;43.232;27.972;2022-12-18T04:47:25;45216.63;;;-143.84;68.61
6032;BME280;3044;43.232;27.972;2022-12-18T04:49:54;45193.78;;;-143.84;68.24
6032;BME280;3044;43.232;27.972;2022-12-18T04:52:21;45184.25;;;-143.84;68.46
6032;BME280;3044;43.232;27.972;2022-12-18T04:54:48;45199.50;;;-143.84;68.25
6032;BME280;3044;43.232;27.972;2022-12-18T04:57:16;45210.94;;;-143.84;67.13
6032;BME280;3044;43.232;27.972;2022-12-18T04:59:43;45222.34;;;-143.84;68.70
6032;BME280;3044;43.232;27.972;2022-12-18T05:02:11;45197.59;;;-143.84;67.75
6032;BME280;3044;43.232;27.972;2022-12-18T05:04:38;45197.59;;;-143.84;67.73
6032;BME280;3044;43.232;27.972;2022-12-18T05:07:07;45169.03;;;-143.84;68.19
6032;BME280;3044;43.232;27.972;2022-12-18T05:09:34;45205.22;;;-143.84;68.69
6032;BME280;3044;43.232;27.972;2022-12-18T05:12:01;45201.41;;;-143.84;70.09
6032;BME280;3044;43.232;27.972;2022-12-18T05:14:28;45197.59;;;-143.84;71.53
6032;BME280;3044;43.232;27.972;2022-12-18T05:16:55;45191.88;;;-143.84;72.03
6032;BME280;3044;43.232;27.972;2022-12-18T05:19:22;45207.13;;;-143.84;72.50
6032;BME280;3044;43.232;27.972;2022-12-18T05:21:50;45195.69;;;-143.84;72.36
6032;BME280;3044;43.232;27.972;2022-12-18T05:24:18;45197.59;;;-143.84;72.58
6032;BME280;3044;43.232;27.972;2022-12-18T05:26:45;45180.47;;;-143.84;72.60
6032;BME280;3044;43.232;27.972;2022-12-18T05:29:12;45210.94;;;-143.84;71.88
6032;BME280;3044;43.232;27.972;2022-12-18T05:31:39;45199.50;;;-143.84;71.74
6032;BME280;3044;43.232;27.972;2022-12-18T05:34:07;45188.06;;;-143.84;71.71
6032;BME280;3044;43.232;27.972;2022-12-18T05:36:34;45205.22;;;-143.84;71.61
6032;BME280;3044;43.232;27.972;2022-12-18T05:39:01;45201.41;;;-143.84;71.28
6032;BME280;3044;43.232;27.972;2022-12-18T05:41:30;45197.59;;;-143.84;70.69
6032;BME280;3044;43.232;27.972;2022-12-18T05:43:58;45207.13;;;-143.84;70.86
6032;BME280;3044;43.232;27.972;2022-12-18T05:46:25;45212.84;;;-143.84;70.72
6032;BME280;3044;43.232;27.972;2022-12-18T05:48:52;45197.59;;;-143.84;70.43
6032;BME280;3044;43.232;27.972;2022-12-18T05:51:21;45237.59;;;-143.84;70.86
6032;BME280;3044;43.232;27.972;2022-12-18T05:53:48;45180.47;;;-143.84;71.15
6032;BME280;3044;43.232;27.972;2022-12-18T05:56:17;45203.31;;;-143.84;71.69
6032;BME280;3044;43.232;27.972;2022-12-18T05:58:46;45226.16;;;-143.84;71.74
6032;BME280;3044;43.232;27.972;2022-12-18T06:01:16;45209.03;;;-143.84;71.80
6032;BME280;3044;43.232;27.972;2022-12-18T06:03:44;45195.69;;;-143.84;72.04
6032;BME280;3044;43.232;27.972;2022-12-18T06:06:16;45216.63;;;-143.84;71.90
6032;BME280;3044;43.232;27.972;2022-12-18T06:08:44;45203.31;;;-143.84;71.79
6032;BME280;3044;43.232;27.972;2022-12-18T06:11:11;45195.69;;;-143.84;72.05
6032;BME280;3044;43.232;27.972;2022-12-18T06:13:38;45207.13;;;-143.84;71.22
6032;BME280;3044;43.232;27.972;2022-12-18T06:16:08;45228.06;;;-143.84;72.03
6032;BME280;3044;43.232;27.972;2022-12-18T06:18:36;45199.50;;;-143.84;71.97
6032;BME280;3044;43.232;27.972;2022-12-18T06:21:03;45218.53;;;-143.84;72.02
6032;BME280;3044;43.232;27.972;2022-12-18T06:23:30;45205.22;;;-143.84;72.15
6032;BME280;3044;43.232;27.972;2022-12-18T06:25:57;45226.16;;;-143.84;72.42
6032;BME280;3044;43.232;27.972;2022-12-18T06:28:24;45197.59;;;-143.84;73.05
6032;BME280;3044;43.232;27.972;2022-12-18T06:30:51;45224.25;;;-143.84;73.06
6032;BME280;3044;43.232;27.972;2022-12-18T06:33:20;45209.03;;;-143.84;73.59
6032;BME280;3044;43.232;27.972;2022-12-18T06:35:47;45226.16;;;-143.84;73.70
6032;BME280;3044;43.232;27.972;2022-12-18T06:38:14;45220.44;;;-143.84;73.45
6032;BME280;3044;43.232;27.972;2022-12-18T06:40:41;45233.78;;;-143.84;74.02
6032;BME280;3044;43.232;27.972;2022-12-18T06:43:08;45189.97;;;-143.84;74.41
6032;BME280;3044;43.232;27.972;2022-12-18T06:45:35;45216.63;;;-143.84;74.53
6032;BME280;3044;43.232;27.972;2022-12-18T06:48:03;45209.03;;;-143.84;74.75
6032;BME280;3044;43.232;27.972;2022-12-18T06:50:31;45218.53;;;-143.84;74.55
6032;BME280;3044;43.232;27.972;2022-12-18T06:52:59;45201.41;;;-143.84;74.51
6032;BME280;3044;43.232;27.972;2022-12-18T06:55:26;45201.41;;;-143.84;74.92
6032;BME280;3044;43.232;27.972;2022-12-18T06:57:53;45203.31;;;-143.84;75.03
6032;BME280;3044;43.232;27.972;2022-12-18T07:00:21;45191.88;;;-143.84;75.17
6032;BME280;3044;43.232;27.972;2022-12-18T07:02:48;45210.94;;;-143.84;75.23
6032;BME280;3044;43.232;27.972;2022-12-18T07:05:15;45191.88;;;-143.84;75.38
6032;BME280;3044;43.232;27.972;2022-12-18T07:07:44;45201.41;;;-143.84;75.75
6032;BME280;3044;43.232;27.972;2022-12-18T07:10:11;45193.78;;;-143.84;75.09
6032;BME280;3044;43.232;27.972;2022-12-18T07:12:38;45214.72;;;-143.84;75.56
6032;BME280;3044;43.232;27.972;2022-12-18T07:15:06;45210.94;;;-143.84;75.99
6032;BME280;3044;43.232;27.972;2022-12-18T07:17:33;45209.03;;;-143.84;76.33
6032;BME280;3044;43.232;27.972;2022-12-18T07:20:00;45199.50;;;-143.84;76.55
6032;BME280;3044;43.232;27.972;2022-12-18T07:22:28;45193.78;;;-143.84;76.04
6032;BME280;3044;43.232;27.972;2022-12-18T07:24:57;45186.16;;;-143.84;76.63
6032;BME280;3044;43.232;27.972;2022-12-18T07:27:24;45220.44;;;-143.84;76.11
6032;BME280;3044;43.232;27.972;2022-12-18T07:29:51;45229.97;;;-143.84;76.32
6032;BME280;3044;43.232;27.972;2022-12-18T07:32:18;45216.63;;;-143.84;76.21
6032;BME280;3044;43.232;27.972;2022-12-18T07:34:45;45172.84;;;-143.84;76.57
6032;BME280;3044;43.232;27.972;2022-12-18T07:37:12;45209.03;;;-143.84;76.31
6032;BME280;3044;43.232;27.972;2022-12-18T07:39:39;45207.13;;;-143.84;76.52
6032;BME280;3044;43.232;27.972;2022-12-18T07:42:08;45203.31;;;-143.84;76.93
6032;BME280;3044;43.232;27.972;2022-12-18T07:44:52;45209.03;;;-143.84;77.19
6032;BME280;3044;43.232;27.972;2022-12-18T07:47:19;45205.22;;;-143.84;77.00
6032;BME280;3044;43.232;27.972;2022-12-18T07:49:46;45224.25;;;-143.84;76.86
6032;BME280;3044;43.232;27.972;2022-12-18T07:52:14;45220.44;;;-143.84;77.15
6032;BME280;3044;43.232;27.972;2022-12-18T07:54:41;45197.59;;;-143.84;77.34
6032;BME280;3044;43.232;27.972;2022-12-18T07:57:10;45216.63;;;-143.84;77.26
6032;BME280;3044;43.232;27.972;2022-12-18T07:59:37;45193.78;;;-143.84;77.57
6032;BME280;3044;43.232;27.972;2022-12-18T08:02:04;45207.13;;;-143.84;77.49
6032;BME280;3044;43.232;27.972;2022-12-18T08:04:31;45199.50;;;-143.84;78.39
6032;BME280;3044;43.232;27.972;2022-12-18T08:06:58;45193.78;;;-143.84;77.94
6032;BME280;3044;43.232;27.972;2022-12-18T08:09:25;45193.78;;;-143.84;78.34
6032;BME280;3044;43.232;27.972;2022-12-18T08:11:52;45191.88;;;-143.84;78.06
6032;BME280;3044;43.232;27.972;2022-12-18T08:14:21;45189.97;;;-143.84;77.78
6032;BME280;3044;43.232;27.972;2022-12-18T08:16:48;45188.06;;;-143.84;77.67
6032;BME280;3044;43.232;27.972;2022-12-18T08:19:15;45153.81;;;-143.84;78.40
6032;BME280;3044;43.232;27.972;2022-12-18T08:21:42;45195.69;;;-143.84;77.55
6032;BME280;3044;43.232;27.972;2022-12-18T08:24:09;45199.50;;;-143.84;78.14
6032;BME280;3044;43.232;27.972;2022-12-18T08:26:37;45197.59;;;-143.84;77.63
6032;BME280;3044;43.232;27.972;2022-12-18T08:29:04;45189.97;;;-143.84;77.76
6032;BME280;3044;43.232;27.972;2022-12-18T08:31:33;45174.75;;;-143.84;77.41
6032;BME280;3044;43.232;27.972;2022-12-18T08:34:00;45205.22;;;-143.84;76.96
6032;BME280;3044;43.232;27.972;2022-12-18T08:36:27;45197.59;;;-143.84;77.23
6032;BME280;3044;43.232;27.972;2022-12-18T08:38:54;45210.94;;;-143.84;77.29
6032;BME280;3044;43.232;27.972;2022-12-18T08:41:22;45191.88;;;-143.84;77.09
6032;BME280;3044;43.232;27.972;2022-12-18T08:43:49;45205.22;;;-143.84;76.77
6032;BME280;3044;43.232;27.972;2022-12-18T08:46:36;45228.06;;;-143.84;77.54
6032;BME280;3044;43.232;27.972;2022-12-18T08:49:04;45176.66;;;-143.84;77.06
6032;BME280;3044;43.232;27.972;2022-12-18T08:51:32;45197.59;;;-143.84;77.06
6032;BME280;3044;43.232;27.972;2022-12-18T08:53:59;45201.41;;;-143.84;77.14
6032;BME280;3044;43.232;27.972;2022-12-18T08:56:26;45201.41;;;-143.84;77.83
6032;BME280;3044;43.232;27.972;2022-12-18T08:58:53;45201.41;;;-143.84;77.66
6032;BME280;3044;43.232;27.972;2022-12-18T09:01:23;45195.69;;;-143.84;77.24
6032;BME280;3044;43.232;27.972;2022-12-18T09:03:52;45180.47;;;-143.84;77.83
6032;BME280;3044;43.232;27.972;2022-12-18T09:06:20;45186.16;;;-143.84;77.94
6032;BME280;3044;43.232;27.972;2022-12-18T09:08:47;45228.06;;;-143.84;77.22
6032;BME280;3044;43.232;27.972;2022-12-18T09:11:19;45205.22;;;-143.84;77.13
6032;BME280;3044;43.232;27.972;2022-12-18T09:13:47;45199.50;;;-143.84;77.41
6032;BME280;3044;43.232;27.972;2022-12-18T09:16:14;45195.69;;;-143.84;77.50
6032;BME280;3044;43.232;27.972;2022-12-18T09:18:42;45209.03;;;-143.84;78.57
6032;BME280;3044;43.232;27.972;2022-12-18T09:21:11;45222.34;;;-143.84;78.31
6032;BME280;3044;43.232;27.972;2022-12-18T09:23:40;45186.16;;;-143.84;78.23
6032;BME280;3044;43.232;27.972;2022-12-18T09:26:07;45193.78;;;-143.84;78.58
6032;BME280;3044;43.232;27.972;2022-12-18T09:28:35;45193.78;;;-143.84;78.51
6032;BME280;3044;43.232;27.972;2022-12-18T09:31:05;45209.03;;;-143.84;78.68
6032;BME280;3044;43.232;27.972;2022-12-18T09:33:33;45193.78;;;-143.84;78.67
6032;BME280;3044;43.232;27.972;2022-12-18T09:36:01;45205.22;;;-143.84;78.28
6032;BME280;3044;43.232;27.972;2022-12-18T09:38:31;45186.16;;;-143.84;78.00
6032;BME280;3044;43.232;27.972;2022-12-18T09:41:00;45176.66;;;-143.84;78.57
6032;BME280;3044;43.232;27.972;2022-12-18T09:43:35;45188.06;;;-143.84;78.40
6032;BME280;3044;43.232;27.972;2022-12-18T09:46:05;45189.97;;;-143.84;78.58
6032;BME280;3044;43.232;27.972;2022-12-18T09:48:36;45195.69;;;-143.84;78.37
6032;BME280;3044;43.232;27.972;2022-12-18T09:51:10;45199.50;;;-143.84;77.89
6032;BME280;3044;43.232;27.972;2022-12-18T09:53:45;45203.31;;;-143.84;78.08
6032;BME280;3044;43.232;27.972;2022-12-18T09:56:17;45189.97;;;-143.84;77.86
6032;BME280;3044;43.232;27.972;2022-12-18T09:58:53;45189.97;;;-143.84;78.74
6032;BME280;3044;43.232;27.972;2022-12-18T10:01:24;45212.84;;;-143.84;78.72
6032;BME280;3044;43.232;27.972;2022-12-18T10:03:53;45209.03;;;-143.84;79.55
6032;BME280;3044;43.232;27.972;2022-12-18T10:06:25;45169.03;;;-143.84;79.38
6032;BME280;3044;43.232;27.972;2022-12-18T10:09:01;45186.16;;;-143.84;79.15
6032;BME280;3044;43.232;27.972;2022-12-18T10:11:37;45184.25;;;-143.84;79.36
6032;BME280;3044;43.232;27.972;2022-12-18T10:14:12;45201.41;;;-143.84;78.51
6032;BME280;3044;43.232;27.972;2022-12-18T10:16:50;45201.41;;;-143.84;79.11
6032;BME280;3044;43.232;27.972;2022-12-18T10:19:29;45199.50;;;-143.84;78.32
6032;BME280;3044;43.232;27.972;2022-12-18T10:22:07;45186.16;;;-143.84;77.84
6032;BME280;3044;43.232;27.972;2022-12-18T10:24:44;45199.50;;;-143.84;78.15
6032;BME280;3044;43.232;27.972;2022-12-18T10:27:15;45169.03;;;-143.84;78.48
6032;BME280;3044;43.232;27.972;2022-12-18T10:29:44;45178.56;;;-143.84;78.54
6032;BME280;3044;43.232;27.972;2022-12-18T10:32:14;45176.66;;;-143.84;78.00
6032;BME280;3044;43.232;27.972;2022-12-18T10:34:45;45193.78;;;-143.84;78.03
6032;BME280;3044;43.232;27.972;2022-12-18T10:37:16;45209.03;;;-143.84;78.17
6032;BME280;3044;43.232;27.972;2022-12-18T10:39:46;45199.50;;;-143.84;77.60
6032;BME280;3044;43.232;27.972;2022-12-18T10:42:18;45212.84;;;-143.84;77.88
6032;BME280;3044;43.232;27.972;2022-12-18T10:44:45;45193.78;;;-143.84;78.29
6032;BME280;3044;43.232;27.972;2022-12-18T10:47:15;45197.59;;;-143.84;78.11
6032;BME280;3044;43.232;27.972;2022-12-18T10:49:49;45169.03;;;-143.84;78.02
6032;BME280;3044;43.232;27.972;2022-12-18T10:52:19;45174.75;;;-143.84;78.18
6032;BME280;3044;43.232;27.972;2022-12-18T10:54:52;45178.56;;;-143.84;77.69
6032;BME280;3044;43.232;27.972;2022-12-18T10:57:34;45201.41;;;-143.84;77.97
6032;BME280;3044;43.232;27.972;2022-12-18T11:00:22;45167.13;;;-143.84;78.16
6032;BME280;3044;43.232;27.972;2022-12-18T11:02:49;45161.41;;;-143.84;78.82
6032;BME280;3044;43.232;27.972;2022-12-18T11:05:25;45170.94;;;-143.84;78.19
6032;BME280;3044;43.232;27.972;2022-12-18T11:07:54;45203.31;;;-143.84;77.16
6032;BME280;3044;43.232;27.972;2022-12-18T11:10:28;45178.56;;;-143.84;76.55
6032;BME280;3044;43.232;27.972;2022-12-18T11:13:11;45174.75;;;-143.84;77.26
6032;BME280;3044;43.232;27.972;2022-12-18T11:15:40;45195.69;;;-143.84;77.26
6032;BME280;3044;43.232;27.972;2022-12-18T11:18:16;45191.88;;;-143.84;76.96
6032;BME280;3044;43.232;27.972;2022-12-18T11:20:50;45172.84;;;-143.84;77.32
6032;BME280;3044;43.232;27.972;2022-12-18T11:23:19;45178.56;;;-143.84;77.55
6032;BME280;3044;43.232;27.972;2022-12-18T11:25:54;45191.88;;;-143.84;78.12
6032;BME280;3044;43.232;27.972;2022-12-18T11:28:36;45193.78;;;-143.84;78.01
6032;BME280;3044;43.232;27.972;2022-12-18T11:31:23;45178.56;;;-143.84;77.69
6032;BME280;3044;43.232;27.972;2022-12-18T11:33:57;45216.63;;;-143.84;77.75
6032;BME280;3044;43.232;27.972;2022-12-18T11:36:29;45195.69;;;-143.84;77.99
6032;BME280;3044;43.232;27.972;2022-12-18T11:39:00;45193.78;;;-143.84;77.97
6032;BME280;3044;43.232;27.972;2022-12-18T11:41:34;45189.97;;;-143.84;77.71
6032;BME280;3044;43.232;27.972;2022-12-18T11:44:25;45216.63;;;-143.84;78.11
6032;BME280;3044;43.232;27.972;2022-12-18T11:46:56;45191.88;;;-143.84;78.35
6032;BME280;3044;43.232;27.972;2022-12-18T11:49:29;45191.88;;;-143.84;78.59
6032;BME280;3044;43.232;27.972;2022-12-18T11:52:04;45180.47;;;-143.84;78.58
6032;BME280;3044;43.232;27.972;2022-12-18T11:54:35;45176.66;;;-143.84;78.77
6032;BME280;3044;43.232;27.972;2022-12-18T11:57:10;45193.78;;;-143.84;78.77
6032;BME280;3044;43.232;27.972;2022-12-18T11:59:51;45155.69;;;-143.84;78.88
6032;BME280;3044;43.232;27.972;2022-12-18T12:02:33;45186.16;;;-143.84;79.38
6032;BME280;3044;43.232;27.972;2022-12-18T12:05:14;45197.59;;;-143.84;79.18
6032;BME280;3044;43.232;27.972;2022-12-18T12:07:52;45189.97;;;-143.84;79.37
6032;BME280;3044;43.232;27.972;2022-12-18T12:10:37;45132.84;;;-143.84;79.30
6032;BME280;3044;43.232;27.972;2022-12-18T12:13:29;45170.94;;;-143.84;78.47
6032;BME280;3044;43.232;27.972;2022-12-18T12:16:08;45167.13;;;-143.84;78.84
6032;BME280;3044;43.232;27.972;2022-12-18T12:18:48;45170.94;;;-143.84;78.64
6032;BME280;3044;43.232;27.972;2022-12-18T12:21:24;45193.78;;;-143.84;78.21
6032;BME280;3044;43.232;27.972;2022-12-18T12:24:00;45203.31;;;-143.84;78.18
6032;BME280;3044;43.232;27.972;2022-12-18T12:26:35;45197.59;;;-143.84;76.18
6032;BME280;3044;43.232;27.972;2022-12-18T12:29:18;45199.50;;;-143.84;75.77
6032;BME280;3044;43.232;27.972;2022-12-18T12:32:04;45189.97;;;-143.84;75.44
6032;BME280;3044;43.232;27.972;2022-12-18T12:34:41;45176.66;;;-143.84;75.19
6032;BME280;3044;43.232;27.972;2022-12-18T12:37:22;45186.16;;;-143.84;74.85
6032;BME280;3044;43.232;27.972;2022-12-18T12:39:53;45189.97;;;-143.84;74.42
6032;BME280;3044;43.232;27.972;2022-12-18T12:42:29;45207.13;;;-143.84;74.33
6032;BME280;3044;43.232;27.972;2022-12-18T12:45:21;45193.78;;;-143.84;73.84
6032;BME280;3044;43.232;27.972;2022-12-18T12:47:51;45209.03;;;-143.84;73.30
6032;BME280;3044;43.232;27.972;2022-12-18T12:50:21;45214.72;;;-143.84;71.06
6032;BME280;3044;43.232;27.972;2022-12-18T12:52:52;45178.56;;;-143.84;70.23
6032;BME280;3044;43.232;27.972;2022-12-18T12:55:21;45231.88;;;-143.84;68.80
6032;BME280;3044;43.232;27.972;2022-12-18T12:57:57;45233.78;;;-143.84;67.79
6032;BME280;3044;43.232;27.972;2022-12-18T13:00:33;45224.25;;;-143.84;66.70
6032;BME280;3044;43.232;27.972;2022-12-18T13:03:11;45197.59;;;-143.84;67.24
6032;BME280;3044;43.232;27.972;2022-12-18T13:05:45;45229.97;;;-143.84;65.42
6032;BME280;3044;43.232;27.972;2022-12-18T13:08:23;45218.53;;;-143.84;64.87